sensor_id;sensor_type;location;lat;lon;timestamp;P1;durP1;ratioP1;P2;durP2;ratioP2
12122;SDS011;6125;59.628;17.852;2022-08-19T00:00:44;32.50;;;17.07;;
12122;SDS011;6125;59.628;17.852;2022-08-19T00:06:40;37.37;;;18.40;;
12122;SDS011;6125;59.628;17.852;2022-08-19T00:12:32;30.07;;;17.20;;
12122;SDS011;6125;59.628;17.852;2022-08-19T00:18:27;33.70;;;17.53;;
12122;SDS011;6125;59.628;17.852;2022-08-19T00:24:17;32.27;;;16.90;;
12122;SDS011;6125;59.628;17.852;2022-08-19T00:30:09;30.43;;;16.63;;
12122;SDS011;6125;59.628;17.852;2022-08-19T00:36:02;33.10;;;17.20;;
12122;SDS011;6125;59.628;17.852;2022-08-19T00:41:53;29.17;;;17.50;;
12122;SDS011;6125;59.628;17.852;2022-08-19T00:47:48;27.70;;;17.10;;
12122;SDS011;6125;59.628;17.852;2022-08-19T00:53:45;28.60;;;17.47;;
12122;SDS011;6125;59.628;17.852;2022-08-19T00:59:36;32.80;;;17.70;;
12122;SDS011;6125;59.628;17.852;2022-08-19T01:05:32;33.17;;;18.53;;
12122;SDS011;6125;59.628;17.852;2022-08-19T01:08:03;31.47;;;18.23;;
12122;SDS011;6125;59.628;17.852;2022-08-19T01:13:57;33.13;;;18.43;;
12122;SDS011;6125;59.628;17.852;2022-08-19T01:19:52;32.67;;;18.17;;
12122;SDS011;6125;59.628;17.852;2022-08-19T01:25:45;31.03;;;19.10;;
12122;SDS011;6125;59.628;17.852;2022-08-19T01:31:40;30.07;;;19.67;;
12122;SDS011;6125;59.628;17.852;2022-08-19T01:37:41;29.57;;;19.83;;
12122;SDS011;6125;59.628;17.852;2022-08-19T01:43:37;30.87;;;18.40;;
12122;SDS011;6125;59.628;17.852;2022-08-19T01:49:28;32.17;;;19.83;;
12122;SDS011;6125;59.628;17.852;2022-08-19T01:55:21;27.60;;;19.07;;
12122;SDS011;6125;59.628;17.852;2022-08-19T02:01:12;29.00;;;18.33;;
12122;SDS011;6125;59.628;17.852;2022-08-19T02:10:37;26.03;;;18.67;;
12122;SDS011;6125;59.628;17.852;2022-08-19T02:16:30;27.17;;;18.50;;
12122;SDS011;6125;59.628;17.852;2022-08-19T02:22:21;24.73;;;17.63;;
12122;SDS011;6125;59.628;17.852;2022-08-19T02:28:12;26.70;;;17.47;;
12122;SDS011;6125;59.628;17.852;2022-08-19T02:34:07;21.33;;;16.63;;
12122;SDS011;6125;59.628;17.852;2022-08-19T02:39:57;28.83;;;17.70;;
12122;SDS011;6125;59.628;17.852;2022-08-19T02:45:48;26.33;;;17.63;;
12122;SDS011;6125;59.628;17.852;2022-08-19T02:51:42;24.40;;;18.10;;
12122;SDS011;6125;59.628;17.852;2022-08-19T02:57:33;26.23;;;18.43;;
12122;SDS011;6125;59.628;17.852;2022-08-19T03:03:23;33.67;;;19.17;;
12122;SDS011;6125;59.628;17.852;2022-08-19T03:09:38;25.53;;;18.60;;
12122;SDS011;6125;59.628;17.852;2022-08-19T03:15:27;26.23;;;17.73;;
12122;SDS011;6125;59.628;17.852;2022-08-19T03:21:21;29.17;;;20.60;;
12122;SDS011;6125;59.628;17.852;2022-08-19T03:27:15;28.17;;;19.43;;
12122;SDS011;6125;59.628;17.852;2022-08-19T03:29:43;28.93;;;19.07;;
12122;SDS011;6125;59.628;17.852;2022-08-19T03:35:35;34.50;;;19.70;;
12122;SDS011;6125;59.628;17.852;2022-08-19T03:41:30;31.07;;;19.97;;
12122;SDS011;6125;59.628;17.852;2022-08-19T03:47:28;29.37;;;20.60;;
12122;SDS011;6125;59.628;17.852;2022-08-19T03:53:19;34.93;;;20.77;;
12122;SDS011;6125;59.628;17.852;2022-08-19T03:59:11;34.47;;;21.73;;
12122;SDS011;6125;59.628;17.852;2022-08-19T04:05:04;32.30;;;18.90;;
12122;SDS011;6125;59.628;17.852;2022-08-19T04:10:55;34.20;;;20.33;;
12122;SDS011;6125;59.628;17.852;2022-08-19T04:16:45;33.93;;;21.80;;
12122;SDS011;6125;59.628;17.852;2022-08-19T04:22:38;32.43;;;20.30;;
12122;SDS011;6125;59.628;17.852;2022-08-19T04:28:30;30.67;;;20.90;;
12122;SDS011;6125;59.628;17.852;2022-08-19T04:31:02;34.77;;;21.50;;
12122;SDS011;6125;59.628;17.852;2022-08-19T04:36:58;29.93;;;20.30;;
12122;SDS011;6125;59.628;17.852;2022-08-19T04:42:51;28.20;;;17.73;;
12122;SDS011;6125;59.628;17.852;2022-08-19T04:48:43;32.23;;;21.00;;
12122;SDS011;6125;59.628;17.852;2022-08-19T04:54:35;27.77;;;20.03;;
12122;SDS011;6125;59.628;17.852;2022-08-19T05:00:26;29.97;;;20.23;;
12122;SDS011;6125;59.628;17.852;2022-08-19T05:06:19;28.13;;;19.63;;
12122;SDS011;6125;59.628;17.852;2022-08-19T05:12:12;31.43;;;21.07;;
12122;SDS011;6125;59.628;17.852;2022-08-19T05:18:06;30.57;;;20.73;;
12122;SDS011;6125;59.628;17.852;2022-08-19T05:24:13;26.20;;;19.50;;
12122;SDS011;6125;59.628;17.852;2022-08-19T05:30:04;30.33;;;20.13;;
12122;SDS011;6125;59.628;17.852;2022-08-19T05:35:58;28.70;;;18.70;;
12122;SDS011;6125;59.628;17.852;2022-08-19T05:41:58;26.07;;;18.27;;
12122;SDS011;6125;59.628;17.852;2022-08-19T05:47:49;27.20;;;19.77;;
12122;SDS011;6125;59.628;17.852;2022-08-19T05:53:43;30.73;;;19.17;;
12122;SDS011;6125;59.628;17.852;2022-08-19T05:59:33;37.97;;;19.37;;
12122;SDS011;6125;59.628;17.852;2022-08-19T06:05:23;25.57;;;18.50;;
12122;SDS011;6125;59.628;17.852;2022-08-19T06:11:18;23.97;;;17.90;;
12122;SDS011;6125;59.628;17.852;2022-08-19T06:17:10;28.43;;;18.20;;
12122;SDS011;6125;59.628;17.852;2022-08-19T06:23:00;24.27;;;18.63;;
12122;SDS011;6125;59.628;17.852;2022-08-19T06:28:51;25.10;;;18.60;;
12122;SDS011;6125;59.628;17.852;2022-08-19T06:34:43;27.93;;;18.53;;
12122;SDS011;6125;59.628;17.852;2022-08-19T06:40:38;23.47;;;16.50;;
12122;SDS011;6125;59.628;17.852;2022-08-19T06:46:28;24.87;;;17.07;;
12122;SDS011;6125;59.628;17.852;2022-08-19T06:52:37;21.67;;;16.83;;
12122;SDS011;6125;59.628;17.852;2022-08-19T06:58:30;24.10;;;16.17;;
12122;SDS011;6125;59.628;17.852;2022-08-19T07:04:28;19.37;;;15.47;;
12122;SDS011;6125;59.628;17.852;2022-08-19T07:10:19;26.33;;;21.60;;
12122;SDS011;6125;59.628;17.852;2022-08-19T07:16:10;19.87;;;15.83;;
12122;SDS011;6125;59.628;17.852;2022-08-19T07:22:06;21.10;;;15.30;;
12122;SDS011;6125;59.628;17.852;2022-08-19T07:27:58;18.70;;;14.87;;
12122;SDS011;6125;59.628;17.852;2022-08-19T07:33:53;16.87;;;14.13;;
12122;SDS011;6125;59.628;17.852;2022-08-19T07:39:45;21.00;;;15.07;;
12122;SDS011;6125;59.628;17.852;2022-08-19T07:45:36;17.80;;;13.77;;
12122;SDS011;6125;59.628;17.852;2022-08-19T07:51:26;16.63;;;13.93;;
12122;SDS011;6125;59.628;17.852;2022-08-19T07:57:17;14.73;;;12.83;;
12122;SDS011;6125;59.628;17.852;2022-08-19T08:03:08;17.73;;;12.40;;
12122;SDS011;6125;59.628;17.852;2022-08-19T08:08:58;16.27;;;12.43;;
12122;SDS011;6125;59.628;17.852;2022-08-19T08:19:08;14.40;;;11.20;;
12122;SDS011;6125;59.628;17.852;2022-08-19T08:25:00;13.37;;;9.70;;
12122;SDS011;6125;59.628;17.852;2022-08-19T08:30:51;18.23;;;11.00;;
12122;SDS011;6125;59.628;17.852;2022-08-19T08:36:43;17.20;;;10.17;;
12122;SDS011;6125;59.628;17.852;2022-08-19T08:42:35;14.93;;;10.17;;
12122;SDS011;6125;59.628;17.852;2022-08-19T08:48:35;12.93;;;8.43;;
12122;SDS011;6125;59.628;17.852;2022-08-19T08:54:30;16.03;;;8.93;;
12122;SDS011;6125;59.628;17.852;2022-08-19T09:00:28;17.10;;;7.63;;
12122;SDS011;6125;59.628;17.852;2022-08-19T09:06:21;12.17;;;8.00;;
12122;SDS011;6125;59.628;17.852;2022-08-19T09:09:04;10.53;;;7.43;;
12122;SDS011;6125;59.628;17.852;2022-08-19T09:18:25;12.57;;;7.27;;
12122;SDS011;6125;59.628;17.852;2022-08-19T09:24:29;11.67;;;7.50;;
12122;SDS011;6125;59.628;17.852;2022-08-19T09:30:20;14.67;;;8.50;;
12122;SDS011;6125;59.628;17.852;2022-08-19T09:36:15;9.30;;;7.20;;
12122;SDS011;6125;59.628;17.852;2022-08-19T09:42:09;14.37;;;7.70;;
12122;SDS011;6125;59.628;17.852;2022-08-19T09:44:41;12.43;;;7.13;;
12122;SDS011;6125;59.628;17.852;2022-08-19T09:50:31;8.97;;;6.43;;
12122;SDS011;6125;59.628;17.852;2022-08-19T09:56:27;17.87;;;7.00;;
12122;SDS011;6125;59.628;17.852;2022-08-19T10:02:17;7.30;;;6.40;;
12122;SDS011;6125;59.628;17.852;2022-08-19T10:08:20;10.57;;;6.70;;
12122;SDS011;6125;59.628;17.852;2022-08-19T10:14:16;9.90;;;6.03;;
12122;SDS011;6125;59.628;17.852;2022-08-19T10:20:10;10.50;;;6.30;;
12122;SDS011;6125;59.628;17.852;2022-08-19T10:26:00;7.30;;;5.53;;
12122;SDS011;6125;59.628;17.852;2022-08-19T10:31:56;13.20;;;6.13;;
12122;SDS011;6125;59.628;17.852;2022-08-19T10:37:51;17.70;;;6.73;;
12122;SDS011;6125;59.628;17.852;2022-08-19T10:43:47;9.00;;;5.83;;
12122;SDS011;6125;59.628;17.852;2022-08-19T10:49:42;7.37;;;5.40;;
12122;SDS011;6125;59.628;17.852;2022-08-19T10:55:49;9.10;;;5.20;;
12122;SDS011;6125;59.628;17.852;2022-08-19T11:02:01;8.87;;;5.60;;
12122;SDS011;6125;59.628;17.852;2022-08-19T11:08:24;10.83;;;5.43;;
12122;SDS011;6125;59.628;17.852;2022-08-19T11:14:17;9.57;;;5.07;;
12122;SDS011;6125;59.628;17.852;2022-08-19T11:20:08;13.47;;;5.43;;
12122;SDS011;6125;59.628;17.852;2022-08-19T11:26:00;9.80;;;5.03;;
12122;SDS011;6125;59.628;17.852;2022-08-19T11:31:52;8.43;;;5.00;;
12122;SDS011;6125;59.628;17.852;2022-08-19T11:37:41;10.47;;;4.83;;
12122;SDS011;6125;59.628;17.852;2022-08-19T11:40:15;10.00;;;5.07;;
12122;SDS011;6125;59.628;17.852;2022-08-19T11:46:14;10.73;;;5.83;;
12122;SDS011;6125;59.628;17.852;2022-08-19T11:52:24;7.70;;;5.57;;
12122;SDS011;6125;59.628;17.852;2022-08-19T11:58:16;8.07;;;5.43;;
12122;SDS011;6125;59.628;17.852;2022-08-19T12:04:16;8.17;;;5.90;;
12122;SDS011;6125;59.628;17.852;2022-08-19T12:10:25;8.00;;;5.13;;
12122;SDS011;6125;59.628;17.852;2022-08-19T12:16:20;10.27;;;5.00;;
12122;SDS011;6125;59.628;17.852;2022-08-19T12:22:17;10.30;;;5.60;;
12122;SDS011;6125;59.628;17.852;2022-08-19T12:28:14;5.60;;;4.77;;
12122;SDS011;6125;59.628;17.852;2022-08-19T12:34:07;10.13;;;5.03;;
12122;SDS011;6125;59.628;17.852;2022-08-19T12:39:58;7.70;;;4.83;;
12122;SDS011;6125;59.628;17.852;2022-08-19T12:45:49;10.37;;;5.00;;
12122;SDS011;6125;59.628;17.852;2022-08-19T12:51:38;6.03;;;4.67;;
12122;SDS011;6125;59.628;17.852;2022-08-19T12:57:31;8.23;;;5.30;;
12122;SDS011;6125;59.628;17.852;2022-08-19T13:03:25;14.37;;;5.93;;
12122;SDS011;6125;59.628;17.852;2022-08-19T13:09:16;6.80;;;5.63;;
12122;SDS011;6125;59.628;17.852;2022-08-19T13:15:10;7.10;;;5.30;;
12122;SDS011;6125;59.628;17.852;2022-08-19T13:21:02;6.17;;;5.00;;
12122;SDS011;6125;59.628;17.852;2022-08-19T13:26:53;5.67;;;4.47;;
12122;SDS011;6125;59.628;17.852;2022-08-19T13:32:43;8.53;;;5.20;;
12122;SDS011;6125;59.628;17.852;2022-08-19T13:38:58;7.97;;;4.95;;
12122;SDS011;6125;59.628;17.852;2022-08-19T13:41:25;12.27;;;5.57;;
12122;SDS011;6125;59.628;17.852;2022-08-19T13:47:18;11.05;;;5.63;;
12122;SDS011;6125;59.628;17.852;2022-08-19T13:53:09;11.23;;;5.25;;
12122;SDS011;6125;59.628;17.852;2022-08-19T13:58:59;6.55;;;4.63;;
12122;SDS011;6125;59.628;17.852;2022-08-19T14:04:49;8.90;;;5.25;;
12122;SDS011;6125;59.628;17.852;2022-08-19T14:10:43;9.15;;;5.30;;
12122;SDS011;6125;59.628;17.852;2022-08-19T14:16:35;8.73;;;5.13;;
12122;SDS011;6125;59.628;17.852;2022-08-19T14:22:28;5.72;;;4.78;;
12122;SDS011;6125;59.628;17.852;2022-08-19T14:28:21;6.25;;;5.00;;
12122;SDS011;6125;59.628;17.852;2022-08-19T14:34:10;8.13;;;4.78;;
12122;SDS011;6125;59.628;17.852;2022-08-19T14:40:02;7.95;;;4.90;;
12122;SDS011;6125;59.628;17.852;2022-08-19T14:45:58;9.45;;;5.07;;
12122;SDS011;6125;59.628;17.852;2022-08-19T14:51:53;10.88;;;5.25;;
12122;SDS011;6125;59.628;17.852;2022-08-19T14:57:47;7.85;;;5.18;;
12122;SDS011;6125;59.628;17.852;2022-08-19T15:03:40;6.90;;;4.72;;
12122;SDS011;6125;59.628;17.852;2022-08-19T15:09:32;11.33;;;5.60;;
12122;SDS011;6125;59.628;17.852;2022-08-19T15:15:23;13.60;;;4.97;;
12122;SDS011;6125;59.628;17.852;2022-08-19T15:17:53;8.37;;;5.33;;
12122;SDS011;6125;59.628;17.852;2022-08-19T15:23:50;7.93;;;5.40;;
12122;SDS011;6125;59.628;17.852;2022-08-19T15:29:40;7.70;;;5.30;;
12122;SDS011;6125;59.628;17.852;2022-08-19T15:35:29;10.77;;;6.00;;
12122;SDS011;6125;59.628;17.852;2022-08-19T15:41:22;7.88;;;5.25;;
12122;SDS011;6125;59.628;17.852;2022-08-19T15:47:17;9.02;;;5.18;;
12122;SDS011;6125;59.628;17.852;2022-08-19T15:53:09;10.55;;;5.32;;
12122;SDS011;6125;59.628;17.852;2022-08-19T15:59:14;12.93;;;5.90;;
12122;SDS011;6125;59.628;17.852;2022-08-19T16:05:25;11.07;;;5.63;;
12122;SDS011;6125;59.628;17.852;2022-08-19T16:11:37;10.73;;;6.00;;
12122;SDS011;6125;59.628;17.852;2022-08-19T16:17:29;10.43;;;5.43;;
12122;SDS011;6125;59.628;17.852;2022-08-19T16:23:19;8.57;;;5.70;;
12122;SDS011;6125;59.628;17.852;2022-08-19T16:29:10;11.43;;;6.00;;
12122;SDS011;6125;59.628;17.852;2022-08-19T16:35:03;14.10;;;6.37;;
12122;SDS011;6125;59.628;17.852;2022-08-19T16:40:56;12.80;;;6.60;;
12122;SDS011;6125;59.628;17.852;2022-08-19T16:46:48;9.53;;;6.77;;
12122;SDS011;6125;59.628;17.852;2022-08-19T16:58:43;12.70;;;6.40;;
12122;SDS011;6125;59.628;17.852;2022-08-19T17:04:33;11.70;;;5.93;;
12122;SDS011;6125;59.628;17.852;2022-08-19T17:10:24;12.07;;;6.20;;
12122;SDS011;6125;59.628;17.852;2022-08-19T17:16:16;7.00;;;6.30;;
12122;SDS011;6125;59.628;17.852;2022-08-19T17:18:46;15.20;;;6.80;;
12122;SDS011;6125;59.628;17.852;2022-08-19T17:24:38;14.53;;;6.80;;
12122;SDS011;6125;59.628;17.852;2022-08-19T17:30:34;11.60;;;6.53;;
12122;SDS011;6125;59.628;17.852;2022-08-19T17:36:24;11.20;;;6.70;;
12122;SDS011;6125;59.628;17.852;2022-08-19T17:42:15;15.00;;;6.80;;
12122;SDS011;6125;59.628;17.852;2022-08-19T17:48:07;14.37;;;8.67;;
12122;SDS011;6125;59.628;17.852;2022-08-19T17:54:00;8.37;;;6.80;;
12122;SDS011;6125;59.628;17.852;2022-08-19T17:59:51;11.60;;;6.70;;
12122;SDS011;6125;59.628;17.852;2022-08-19T18:05:43;10.37;;;6.90;;
12122;SDS011;6125;59.628;17.852;2022-08-19T18:11:37;8.93;;;6.97;;
12122;SDS011;6125;59.628;17.852;2022-08-19T18:20:53;10.20;;;6.67;;
12122;SDS011;6125;59.628;17.852;2022-08-19T18:26:47;14.97;;;8.07;;
12122;SDS011;6125;59.628;17.852;2022-08-19T18:32:41;10.60;;;8.10;;
12122;SDS011;6125;59.628;17.852;2022-08-19T18:38:36;16.87;;;7.40;;
12122;SDS011;6125;59.628;17.852;2022-08-19T18:44:43;15.47;;;7.40;;
12122;SDS011;6125;59.628;17.852;2022-08-19T18:50:55;10.53;;;7.80;;
12122;SDS011;6125;59.628;17.852;2022-08-19T18:56:54;11.60;;;8.23;;
12122;SDS011;6125;59.628;17.852;2022-08-19T19:02:53;15.47;;;9.57;;
12122;SDS011;6125;59.628;17.852;2022-08-19T19:08:45;13.23;;;8.93;;
12122;SDS011;6125;59.628;17.852;2022-08-19T19:14:38;16.70;;;9.03;;
12122;SDS011;6125;59.628;17.852;2022-08-19T19:17:12;10.20;;;8.67;;
12122;SDS011;6125;59.628;17.852;2022-08-19T19:23:08;12.60;;;9.13;;
12122;SDS011;6125;59.628;17.852;2022-08-19T19:28:57;13.50;;;9.77;;
12122;SDS011;6125;59.628;17.852;2022-08-19T19:34:48;18.90;;;10.10;;
12122;SDS011;6125;59.628;17.852;2022-08-19T19:40:38;14.37;;;9.83;;
12122;SDS011;6125;59.628;17.852;2022-08-19T19:46:29;15.50;;;9.90;;
12122;SDS011;6125;59.628;17.852;2022-08-19T19:52:25;18.07;;;10.17;;
12122;SDS011;6125;59.628;17.852;2022-08-19T19:58:17;11.17;;;8.87;;
12122;SDS011;6125;59.628;17.852;2022-08-19T20:00:45;18.63;;;10.53;;
12122;SDS011;6125;59.628;17.852;2022-08-19T20:06:36;12.87;;;9.57;;
12122;SDS011;6125;59.628;17.852;2022-08-19T20:12:31;18.07;;;10.97;;
12122;SDS011;6125;59.628;17.852;2022-08-19T20:22:02;17.37;;;10.90;;
12122;SDS011;6125;59.628;17.852;2022-08-19T20:27:55;15.53;;;10.03;;
12122;SDS011;6125;59.628;17.852;2022-08-19T20:33:46;16.40;;;9.93;;
12122;SDS011;6125;59.628;17.852;2022-08-19T20:39:38;16.33;;;10.07;;
12122;SDS011;6125;59.628;17.852;2022-08-19T20:45:29;18.83;;;9.87;;
12122;SDS011;6125;59.628;17.852;2022-08-19T20:51:27;22.60;;;10.20;;
12122;SDS011;6125;59.628;17.852;2022-08-19T20:57:22;18.77;;;10.17;;
12122;SDS011;6125;59.628;17.852;2022-08-19T21:03:17;14.00;;;9.93;;
12122;SDS011;6125;59.628;17.852;2022-08-19T21:09:09;15.40;;;9.77;;
12122;SDS011;6125;59.628;17.852;2022-08-19T21:14:59;16.03;;;10.10;;
12122;SDS011;6125;59.628;17.852;2022-08-19T21:21:20;15.63;;;10.60;;
12122;SDS011;6125;59.628;17.852;2022-08-19T21:27:09;12.70;;;10.57;;
12122;SDS011;6125;59.628;17.852;2022-08-19T21:32:58;17.17;;;10.77;;
12122;SDS011;6125;59.628;17.852;2022-08-19T21:38:51;15.60;;;10.77;;
12122;SDS011;6125;59.628;17.852;2022-08-19T21:44:45;19.40;;;11.03;;
12122;SDS011;6125;59.628;17.852;2022-08-19T21:50:37;14.30;;;10.77;;
12122;SDS011;6125;59.628;17.852;2022-08-19T21:56:30;15.47;;;11.03;;
12122;SDS011;6125;59.628;17.852;2022-08-19T22:02:23;13.63;;;10.30;;
12122;SDS011;6125;59.628;17.852;2022-08-19T22:08:14;19.23;;;11.00;;
12122;SDS011;6125;59.628;17.852;2022-08-19T22:14:09;21.43;;;11.60;;
12122;SDS011;6125;59.628;17.852;2022-08-19T22:20:02;16.20;;;11.33;;
12122;SDS011;6125;59.628;17.852;2022-08-19T22:25:58;16.00;;;11.33;;
12122;SDS011;6125;59.628;17.852;2022-08-19T22:31:48;16.40;;;11.20;;
12122;SDS011;6125;59.628;17.852;2022-08-19T22:37:40;13.10;;;10.80;;
12122;SDS011;6125;59.628;17.852;2022-08-19T22:43:30;16.40;;;11.23;;
12122;SDS011;6125;59.628;17.852;2022-08-19T22:49:22;15.63;;;11.00;;
12122;SDS011;6125;59.628;17.852;2022-08-19T22:55:13;15.17;;;10.70;;
12122;SDS011;6125;59.628;17.852;2022-08-19T22:57:45;20.20;;;10.77;;
12122;SDS011;6125;59.628;17.852;2022-08-19T23:03:34;16.57;;;10.30;;
12122;SDS011;6125;59.628;17.852;2022-08-19T23:09:25;16.10;;;11.10;;
12122;SDS011;6125;59.628;17.852;2022-08-19T23:15:16;12.50;;;10.47;;
12122;SDS011;6125;59.628;17.852;2022-08-19T23:21:13;15.67;;;11.37;;
12122;SDS011;6125;59.628;17.852;2022-08-19T23:27:09;13.27;;;11.23;;
12122;SDS011;6125;59.628;17.852;2022-08-19T23:33:21;38.27;;;11.07;;
12122;SDS011;6125;59.628;17.852;2022-08-19T23:39:12;16.07;;;10.93;;
12122;SDS011;6125;59.628;17.852;2022-08-19T23:45:06;15.80;;;10.37;;
12122;SDS011;6125;59.628;17.852;2022-08-19T23:50:56;14.90;;;9.80;;
12122;SDS011;6125;59.628;17.852;2022-08-19T23:56:48;15.63;;;10.93;;
